createdAt,value
2023-03-24T00:00:59.615Z,95159.13
2023-03-24T00:02:01.343Z,95164.16
2023-03-24T00:03:03.319Z,95164.31
2023-03-24T00:04:05.262Z,95165.91
2023-03-24T00:05:08.447Z,95162.47
2023-03-24T00:06:13.721Z,95168.41
2023-03-24T00:07:16.135Z,95168.66
2023-03-24T00:08:17.829Z,95159.00
2023-03-24T00:09:19.689Z,95161.06
2023-03-24T00:10:22.621Z,95172.91
2023-03-24T00:11:25.515Z,95161.53
2023-03-24T00:12:27.177Z,95166.91
2023-03-24T00:13:29.302Z,95163.00
2023-03-24T00:14:30.923Z,95164.31
2023-03-24T00:15:33.825Z,95150.09
2023-03-24T00:16:38.469Z,95166.19
2023-03-24T00:17:40.953Z,95161.06
2023-03-24T00:18:42.706Z,95159.94
2023-03-24T00:19:45.266Z,95152.06
2023-03-24T00:20:47.150Z,95161.31
2023-03-24T00:21:48.946Z,95165.22
2023-03-24T00:22:56.982Z,95159.72
2023-03-24T00:23:59.725Z,95163.97
2023-03-24T00:25:04.222Z,95163.72
2023-03-24T00:26:08.906Z,95168.41
2023-03-24T00:27:13.668Z,95155.72
2023-03-24T00:28:16.252Z,95156.59
2023-03-24T00:29:18.175Z,95156.09
2023-03-24T00:30:20.183Z,95152.19
2023-03-24T00:31:22.245Z,95154.84
2023-03-24T00:32:23.940Z,95155.38
2023-03-24T00:33:25.726Z,95145.03
2023-03-24T00:34:28.481Z,95154.91
2023-03-24T00:35:30.175Z,95144.41
2023-03-24T00:36:31.874Z,95142.81
2023-03-24T00:37:34.381Z,95143.16
2023-03-24T00:38:36.360Z,95142.69
2023-03-24T00:39:38.015Z,95138.00
2023-03-24T00:40:39.743Z,95134.91
2023-03-24T00:41:45.073Z,95138.72
2023-03-24T00:42:48.968Z,95145.09
2023-03-24T00:43:51.280Z,95144.09
2023-03-24T00:44:53.925Z,95141.69
2023-03-24T00:46:01.900Z,95132.97
2023-03-24T00:47:04.037Z,95135.72
2023-03-24T00:48:06.323Z,95132.09
2023-03-24T00:49:08.132Z,95136.06
2023-03-24T00:50:17.288Z,95126.34
2023-03-24T00:51:20.572Z,95127.19
2023-03-24T00:52:25.160Z,95125.75
2023-03-24T00:53:29.337Z,95128.06
2023-03-24T00:54:32.127Z,95132.31
2023-03-24T00:55:34.007Z,95127.47
2023-03-24T00:56:37.887Z,95121.66
2023-03-24T00:57:40.780Z,95118.69
2023-03-24T00:58:42.544Z,95124.44
2023-03-24T00:59:48.594Z,95116.56
2023-03-24T01:00:55.516Z,95112.78
2023-03-24T01:01:57.889Z,95111.53
2023-03-24T01:02:59.687Z,95118.69
2023-03-24T01:04:02.356Z,95117.09
2023-03-24T01:05:04.332Z,95116.00
2023-03-24T01:06:06.242Z,95121.59
2023-03-24T01:07:10.791Z,95122.09
2023-03-24T01:08:12.941Z,95116.44
2023-03-24T01:09:14.631Z,95118.94
2023-03-24T01:10:21.717Z,95125.28
2023-03-24T01:11:25.599Z,95110.06
2023-03-24T01:12:28.356Z,95109.78
2023-03-24T01:13:30.205Z,95119.88
2023-03-24T01:14:32.433Z,95129.56
2023-03-24T01:15:36.506Z,95121.63
2023-03-24T01:16:38.682Z,95125.75
2023-03-24T01:17:41.080Z,95140.81
2023-03-24T01:18:43.159Z,95142.25
2023-03-24T01:19:45.367Z,95147.38
2023-03-24T01:20:49.809Z,95154.59
2023-03-24T01:21:54.526Z,95171.75
2023-03-24T01:22:56.233Z,95164.53
2023-03-24T01:23:58.261Z,95163.28
2023-03-24T01:25:00.929Z,95163.38
2023-03-24T01:26:10.621Z,95158.44
2023-03-24T01:27:13.313Z,95137.38
2023-03-24T01:28:17.385Z,95141.19
2023-03-24T01:29:19.214Z,95151.97
2023-03-24T01:30:24.067Z,95144.53
2023-03-24T01:31:26.221Z,95129.63
2023-03-24T01:32:29.234Z,95142.81
2023-03-24T01:33:31.012Z,95139.72
2023-03-24T01:34:33.396Z,95138.91
2023-03-24T01:35:36.336Z,95138.44
2023-03-24T01:36:38.031Z,95143.31
2023-03-24T01:37:40.412Z,95140.94
2023-03-24T01:38:42.119Z,95140.84
2023-03-24T01:39:43.865Z,95139.34
2023-03-24T01:40:47.280Z,95137.59
2023-03-24T01:41:48.980Z,95139.44
2023-03-24T01:42:51.664Z,95139.72
2023-03-24T01:43:53.462Z,95142.00
2023-03-24T01:44:59.931Z,95139.59
2023-03-24T01:46:19.461Z,95119.09
2023-03-24T01:47:21.361Z,95125.84
2023-03-24T01:48:51.416Z,95128.22
2023-03-24T01:50:02.838Z,95118.34
2023-03-24T01:51:09.269Z,95136.34
2023-03-24T01:52:16.658Z,95145.38
2023-03-24T01:53:18.454Z,95137.31
2023-03-24T01:54:30.333Z,95131.75
2023-03-24T01:55:35.323Z,95135.28
2023-03-24T01:56:41.123Z,95138.47
2023-03-24T01:57:46.368Z,95127.16
2023-03-24T01:58:54.020Z,95122.47
2023-03-24T02:00:13.790Z,95131.03
2023-03-24T02:01:17.485Z,95127.00
2023-03-24T02:04:00.348Z,95125.13
2023-03-24T02:05:04.662Z,95127.31
2023-03-24T02:06:13.366Z,95125.09
2023-03-24T02:07:33.752Z,95131.22
2023-03-24T02:08:42.576Z,95124.41
2023-03-24T02:09:44.698Z,95125.75
2023-03-24T02:10:46.950Z,95125.22
2023-03-24T02:11:49.033Z,95131.41
2023-03-24T02:12:51.037Z,95138.81
2023-03-24T02:13:53.166Z,95136.34
2023-03-24T02:14:54.890Z,95142.97
2023-03-24T02:16:15.024Z,95142.59
2023-03-24T02:17:35.889Z,95140.66
2023-03-24T02:19:02.504Z,95145.00
2023-03-24T02:20:22.780Z,95133.44
2023-03-24T02:21:24.461Z,95134.59
2023-03-24T02:22:51.019Z,95129.72
2023-03-24T02:24:17.023Z,95120.72
2023-03-24T02:25:40.443Z,95111.16
2023-03-24T02:27:23.656Z,95111.44
2023-03-24T02:28:35.786Z,95106.41
2023-03-24T02:30:04.363Z,95106.66
2023-03-24T02:31:09.887Z,95113.56
2023-03-24T02:32:44.689Z,95110.47
2023-03-24T02:34:24.223Z,95089.72
2023-03-24T02:35:34.867Z,95086.38
2023-03-24T02:36:39.227Z,95080.91
2023-03-24T02:38:13.203Z,95072.94
2023-03-24T02:39:17.649Z,95077.34
2023-03-24T02:40:31.031Z,95071.25
2023-03-24T02:41:55.636Z,95066.94
2023-03-24T02:43:09.575Z,95065.59
2023-03-24T02:44:26.273Z,95063.56
2023-03-24T02:45:36.154Z,95057.69
2023-03-24T02:46:43.940Z,95059.28
2023-03-24T02:48:03.891Z,95057.59
2023-03-24T02:49:17.354Z,95065.88
2023-03-24T02:50:28.626Z,95062.34
2023-03-24T02:51:40.498Z,95058.81
2023-03-24T02:53:06.970Z,95053.00
2023-03-24T02:54:19.455Z,95051.69
2023-03-24T02:55:25.935Z,95050.00
2023-03-24T02:56:29.990Z,95047.34
2023-03-24T02:57:52.791Z,95045.41
2023-03-24T02:59:47.554Z,95037.50
2023-03-24T03:01:31.813Z,95035.13
2023-03-24T03:03:05.101Z,95026.38
2023-03-24T03:04:16.040Z,95031.94
2023-03-24T03:05:32.587Z,95032.53
2023-03-24T03:06:37.785Z,95024.00
2023-03-24T03:07:41.249Z,95027.41
2023-03-24T03:08:44.090Z,95025.38
2023-03-24T03:09:51.104Z,95022.22
2023-03-24T03:10:53.610Z,95024.44
2023-03-24T03:11:56.549Z,95022.75
2023-03-24T03:13:00.632Z,95026.28
2023-03-24T03:14:13.022Z,95024.22
2023-03-24T03:15:19.155Z,95027.75
2023-03-24T03:16:45.487Z,95017.28
2023-03-24T03:17:54.990Z,95022.41
2023-03-24T03:19:00.087Z,95016.94
2023-03-24T03:20:09.179Z,95022.06
2023-03-24T03:21:13.724Z,95011.53
2023-03-24T03:22:17.970Z,95029.81
2023-03-24T03:23:24.170Z,95020.97
2023-03-24T03:24:31.103Z,95020.19
2023-03-24T03:25:50.364Z,95015.88
2023-03-24T03:26:55.664Z,95007.59
2023-03-24T03:28:00.455Z,95006.69
2023-03-24T03:29:10.044Z,95005.81
2023-03-24T03:30:23.235Z,95003.78
2023-03-24T03:31:29.906Z,95003.88
2023-03-24T03:32:34.650Z,95007.31
2023-03-24T03:33:42.412Z,95000.59
2023-03-24T03:34:47.165Z,95000.59
2023-03-24T03:35:53.486Z,95000.00
2023-03-24T03:37:02.023Z,94987.81
2023-03-24T03:38:10.730Z,94989.06
2023-03-24T03:39:16.650Z,94990.91
2023-03-24T03:40:25.854Z,94995.22
2023-03-24T03:41:33.272Z,95005.03
2023-03-24T03:42:35.311Z,94998.84
2023-03-24T03:43:37.513Z,94995.69
2023-03-24T03:44:40.614Z,94998.84
2023-03-24T03:45:42.929Z,94994.53
2023-03-24T03:46:44.860Z,94992.97
2023-03-24T03:47:52.363Z,94998.44
2023-03-24T03:48:54.050Z,94993.50
2023-03-24T03:49:55.725Z,94990.31
2023-03-24T03:51:06.553Z,94992.25
2023-03-24T03:52:13.368Z,94992.72
2023-03-24T03:53:15.597Z,94988.91
2023-03-24T03:54:18.306Z,94989.69
2023-03-24T03:55:22.148Z,94988.56
2023-03-24T03:56:26.962Z,94996.41
2023-03-24T03:57:55.211Z,94995.88
2023-03-24T03:59:07.256Z,94993.84
2023-03-24T04:00:15.576Z,94995.06
2023-03-24T04:01:25.520Z,94987.81
2023-03-24T04:03:28.546Z,94996.09
2023-03-24T04:05:05.754Z,94995.06
2023-03-24T04:06:44.325Z,94996.19
2023-03-24T04:07:45.987Z,94998.03
2023-03-24T04:09:10.229Z,94991.41
2023-03-24T04:10:27.211Z,94993.91
2023-03-24T04:11:34.775Z,94992.75
2023-03-24T04:12:54.295Z,94991.41
2023-03-24T04:14:27.710Z,94999.72
2023-03-24T04:16:18.030Z,95005.56
2023-03-24T04:17:38.364Z,94996.47
2023-03-24T04:18:52.807Z,94996.91
2023-03-24T04:20:05.662Z,95001.06
2023-03-24T04:21:28.255Z,95001.25
2023-03-24T04:23:18.247Z,95004.94
2023-03-24T04:24:49.754Z,95011.47
2023-03-24T04:26:01.719Z,95004.31
2023-03-24T04:27:22.120Z,94999.38
2023-03-24T04:28:37.551Z,95010.22
2023-03-24T04:30:07.490Z,95004.91
2023-03-24T04:31:23.387Z,95008.28
2023-03-24T04:32:41.395Z,95017.94
2023-03-24T04:33:50.255Z,95008.38
2023-03-24T04:35:01.293Z,95009.75
2023-03-24T04:36:29.347Z,95017.50
2023-03-24T04:37:54.781Z,95014.75
2023-03-24T04:39:01.811Z,95015.28
2023-03-24T04:40:14.894Z,95020.25
2023-03-24T04:41:18.036Z,95020.88
2023-03-24T04:42:32.877Z,95019.00
2023-03-24T04:43:36.864Z,95016.16
2023-03-24T04:44:41.785Z,95024.13
2023-03-24T04:46:09.525Z,95023.84
2023-03-24T04:47:43.220Z,95025.34
2023-03-24T04:49:19.280Z,95033.00
2023-03-24T04:50:58.658Z,95030.97
2023-03-24T04:52:06.703Z,95036.22
2023-03-24T04:53:10.083Z,95030.22
2023-03-24T04:54:12.490Z,95030.47
2023-03-24T04:55:35.799Z,95033.00
2023-03-24T04:56:40.701Z,95035.25
2023-03-24T04:57:46.603Z,95041.84
2023-03-24T04:58:48.313Z,95040.19
2023-03-24T04:59:50.061Z,95043.28
2023-03-24T05:00:55.565Z,95038.41
2023-03-24T05:01:57.767Z,95034.19
2023-03-24T05:03:18.796Z,95042.13
2023-03-24T05:04:25.480Z,95046.44
2023-03-24T05:05:28.516Z,95044.16
2023-03-24T05:06:30.925Z,95041.22
2023-03-24T05:07:32.939Z,95040.97
2023-03-24T05:08:37.584Z,95036.28
2023-03-24T05:09:39.324Z,95044.56
2023-03-24T05:10:41.286Z,95032.75
2023-03-24T05:11:44.785Z,95034.25
2023-03-24T05:12:46.361Z,95041.06
2023-03-24T05:14:08.000Z,95036.75
2023-03-24T05:15:10.677Z,95044.16
2023-03-24T05:16:13.818Z,95032.41
2023-03-24T05:17:22.129Z,95036.13
2023-03-24T05:18:24.602Z,95035.59
2023-03-24T05:19:26.258Z,95029.84
2023-03-24T05:20:28.149Z,95026.41
2023-03-24T05:21:36.924Z,95019.19
2023-03-24T05:22:40.047Z,95021.63
2023-03-24T05:23:41.700Z,95021.44
2023-03-24T05:24:43.376Z,95022.94
2023-03-24T05:25:46.858Z,95017.09
2023-03-24T05:26:49.708Z,95001.81
2023-03-24T05:27:53.944Z,94996.78
2023-03-24T05:28:59.069Z,94980.91
2023-03-24T05:30:00.879Z,94959.91
2023-03-24T05:31:05.436Z,94961.69
2023-03-24T05:32:18.719Z,94955.69
2023-03-24T05:33:20.786Z,94958.50
2023-03-24T05:34:22.969Z,94956.56
2023-03-24T05:35:44.756Z,94969.63
2023-03-24T05:36:46.744Z,94973.41
2023-03-24T05:37:51.082Z,94973.16
2023-03-24T05:38:52.917Z,94976.34
2023-03-24T05:39:56.074Z,94977.13
2023-03-24T05:41:08.821Z,94970.66
2023-03-24T05:42:17.127Z,94976.94
2023-03-24T05:43:18.760Z,94976.53
2023-03-24T05:44:31.761Z,94978.88
2023-03-24T05:45:39.589Z,94980.47
2023-03-24T05:46:42.541Z,94980.13
2023-03-24T05:47:44.713Z,94971.84
2023-03-24T05:48:46.944Z,94977.22
2023-03-24T05:49:53.586Z,94974.41
2023-03-24T05:50:55.439Z,94990.03
2023-03-24T05:51:57.355Z,94975.19
2023-03-24T05:52:59.286Z,94981.19
2023-03-24T05:54:29.752Z,94976.94
2023-03-24T05:55:41.828Z,94964.94
2023-03-24T05:57:03.508Z,94976.94
2023-03-24T05:58:13.594Z,94986.09
2023-03-24T05:59:22.738Z,94982.91
2023-03-24T06:00:27.392Z,94975.28
2023-03-24T06:01:35.184Z,94979.97
2023-03-24T06:02:51.199Z,94976.22
2023-03-24T06:04:14.038Z,94973.63
2023-03-24T06:05:16.075Z,94969.03
2023-03-24T06:06:18.603Z,94972.06
2023-03-24T06:07:20.523Z,94979.50
2023-03-24T06:08:24.660Z,94976.03
2023-03-24T06:09:28.953Z,94977.56
2023-03-24T06:10:30.684Z,94983.81
2023-03-24T06:11:33.130Z,94980.09
2023-03-24T06:12:41.264Z,94979.78
2023-03-24T06:13:42.925Z,94976.59
2023-03-24T06:14:45.562Z,94975.53
2023-03-24T06:15:49.058Z,94972.66
2023-03-24T06:17:16.811Z,94967.00
2023-03-24T06:18:21.577Z,94972.22
2023-03-24T06:19:24.717Z,94979.19
2023-03-24T06:20:51.126Z,94978.75
2023-03-24T06:22:00.518Z,94984.09
2023-03-24T06:23:05.779Z,94983.25
2023-03-24T06:24:19.702Z,94979.69
2023-03-24T06:25:21.666Z,94978.47
2023-03-24T06:26:36.413Z,94974.50
2023-03-24T06:27:42.638Z,94969.09
2023-03-24T06:28:44.419Z,94970.47
2023-03-24T06:29:51.700Z,94967.09
2023-03-24T06:30:53.412Z,94981.66
2023-03-24T06:32:00.830Z,94974.97
2023-03-24T06:33:05.472Z,94984.25
2023-03-24T06:34:08.818Z,94988.50
2023-03-24T06:35:10.732Z,94992.75
2023-03-24T06:36:23.530Z,94993.09
2023-03-24T06:37:25.275Z,94992.31
2023-03-24T06:38:27.221Z,94990.72
2023-03-24T06:39:29.090Z,94982.94
2023-03-24T06:40:31.652Z,94987.34
2023-03-24T06:41:33.631Z,95002.22
2023-03-24T06:42:36.707Z,95023.38
2023-03-24T06:43:38.445Z,95028.06
2023-03-24T06:44:40.299Z,95036.63
2023-03-24T06:45:44.501Z,95036.59
2023-03-24T06:46:52.855Z,95039.22
2023-03-24T06:47:56.139Z,95038.44
2023-03-24T06:48:58.123Z,95037.44
2023-03-24T06:49:59.789Z,95040.03
2023-03-24T06:51:01.595Z,95050.97
2023-03-24T06:52:04.328Z,95040.34
2023-03-24T06:53:08.745Z,95041.06
2023-03-24T06:54:11.071Z,95039.28
2023-03-24T06:55:12.855Z,95046.19
2023-03-24T06:56:17.235Z,95057.84
2023-03-24T06:57:23.610Z,95057.41
2023-03-24T06:58:44.556Z,95061.03
2023-03-24T06:59:50.809Z,95072.69
2023-03-24T07:00:53.762Z,95072.78
2023-03-24T07:02:02.582Z,95076.84
2023-03-24T07:03:08.740Z,95065.44
2023-03-24T07:04:12.727Z,95068.56
2023-03-24T07:05:27.606Z,95066.81
2023-03-24T07:06:33.213Z,95071.59
2023-03-24T07:09:12.257Z,95070.09
2023-03-24T07:10:14.301Z,95073.06
2023-03-24T07:11:16.473Z,95075.00
2023-03-24T07:12:31.156Z,95080.56
2023-03-24T07:13:32.851Z,95085.47
2023-03-24T07:14:38.765Z,95086.50
2023-03-24T07:15:41.738Z,95090.31
2023-03-24T07:16:45.374Z,95092.34
2023-03-24T07:18:05.193Z,95086.72
2023-03-24T07:19:16.014Z,95086.28
2023-03-24T07:20:21.954Z,95092.63
2023-03-24T07:21:37.061Z,95102.50
2023-03-24T07:22:38.734Z,95098.75
2023-03-24T07:23:58.890Z,95104.19
2023-03-24T07:25:08.600Z,95101.00
2023-03-24T07:26:19.579Z,95104.59
2023-03-24T07:27:21.206Z,95105.47
2023-03-24T07:28:23.210Z,95106.00
2023-03-24T07:29:25.030Z,95106.00
2023-03-24T07:30:48.457Z,95110.56
2023-03-24T07:31:50.876Z,95108.25
2023-03-24T07:32:54.674Z,95109.31
2023-03-24T07:33:57.673Z,95104.28
2023-03-24T07:35:01.515Z,95109.06
2023-03-24T07:36:03.233Z,95104.41
2023-03-24T07:37:05.090Z,95107.56
2023-03-24T07:38:06.783Z,95103.69
2023-03-24T07:39:09.443Z,95111.63
2023-03-24T07:40:12.985Z,95103.84
2023-03-24T07:41:14.561Z,95118.44
2023-03-24T07:42:21.808Z,95112.19
2023-03-24T07:43:42.198Z,95108.94
2023-03-24T07:44:54.148Z,95108.94
2023-03-24T07:45:55.909Z,95107.47
2023-03-24T07:46:57.726Z,95109.44
2023-03-24T07:48:02.229Z,95106.44
2023-03-24T07:49:18.088Z,95106.84
2023-03-24T07:50:26.443Z,95115.38
2023-03-24T07:51:28.372Z,95118.19
2023-03-24T07:52:50.433Z,95108.88
2023-03-24T07:53:55.561Z,95119.44
2023-03-24T07:55:09.743Z,95119.84
2023-03-24T07:56:32.507Z,95116.97
2023-03-24T07:57:37.350Z,95122.34
2023-03-24T07:58:42.284Z,95116.53
2023-03-24T08:00:06.643Z,95121.38
2023-03-24T08:01:17.170Z,95118.94
2023-03-24T08:02:22.310Z,95114.53
2023-03-24T08:03:49.210Z,95125.50
2023-03-24T08:04:53.606Z,95119.59
2023-03-24T08:06:18.339Z,95121.09
2023-03-24T08:07:25.300Z,95117.78
2023-03-24T08:08:27.250Z,95114.97
2023-03-24T08:09:28.942Z,95106.00
2023-03-24T08:10:31.119Z,95109.50
2023-03-24T08:11:33.001Z,95106.75
2023-03-24T08:12:34.643Z,95112.94
2023-03-24T08:13:36.402Z,95110.56
2023-03-24T08:14:37.989Z,95112.50
2023-03-24T08:15:39.647Z,95104.28
2023-03-24T08:16:42.012Z,95116.94
2023-03-24T08:17:43.602Z,95121.63
2023-03-24T08:18:46.334Z,95112.25
2023-03-24T08:19:59.001Z,95121.97
2023-03-24T08:21:02.284Z,95121.19
2023-03-24T08:22:04.065Z,95123.94
2023-03-24T08:23:07.144Z,95125.00
2023-03-24T08:24:08.843Z,95124.72
2023-03-24T08:25:12.377Z,95125.38
2023-03-24T08:26:15.229Z,95129.28
2023-03-24T08:27:17.059Z,95133.16
2023-03-24T08:28:18.822Z,95136.72
2023-03-24T08:29:20.439Z,95131.13
2023-03-24T08:30:25.023Z,95133.97
2023-03-24T08:31:32.897Z,95138.34
2023-03-24T08:32:34.974Z,95130.88
2023-03-24T08:33:37.336Z,95128.63
2023-03-24T08:34:39.019Z,95122.34
2023-03-24T08:35:40.987Z,95132.59
2023-03-24T08:36:42.638Z,95135.03
2023-03-24T08:37:45.429Z,95145.31
2023-03-24T08:38:48.181Z,95136.97
2023-03-24T08:39:49.807Z,95139.88
2023-03-24T08:40:52.235Z,95143.63
2023-03-24T08:41:54.902Z,95130.03
2023-03-24T08:42:59.514Z,95149.03
2023-03-24T08:44:06.902Z,95140.50
2023-03-24T08:45:12.233Z,95146.28
2023-03-24T08:46:15.336Z,95153.66
2023-03-24T08:47:17.072Z,95143.84
2023-03-24T08:48:18.760Z,95143.13
2023-03-24T08:49:21.201Z,95147.81
2023-03-24T08:50:23.988Z,95152.00
2023-03-24T08:51:26.224Z,95150.44
2023-03-24T08:52:27.985Z,95149.63
2023-03-24T08:53:29.682Z,95163.78
2023-03-24T08:54:31.392Z,95152.06
2023-03-24T08:55:33.124Z,95156.28
2023-03-24T08:56:34.762Z,95157.91
2023-03-24T08:57:36.393Z,95156.69
2023-03-24T08:58:38.063Z,95153.09
2023-03-24T08:59:39.672Z,95152.66
2023-03-24T09:00:42.009Z,95162.00
2023-03-24T09:01:44.027Z,95151.84
2023-03-24T09:02:50.644Z,95157.78
2023-03-24T09:03:52.276Z,95159.88
2023-03-24T09:04:55.863Z,95160.09
2023-03-24T09:05:58.483Z,95159.94
2023-03-24T09:07:02.809Z,95158.78
2023-03-24T09:08:04.838Z,95163.78
2023-03-24T09:09:08.028Z,95152.72
2023-03-24T09:10:10.782Z,95178.56
2023-03-24T09:11:20.418Z,95165.28
2023-03-24T09:12:21.999Z,95153.34
2023-03-24T09:13:23.830Z,95170.50
2023-03-24T09:14:25.687Z,95173.53
2023-03-24T09:15:27.303Z,95174.41
2023-03-24T09:16:28.971Z,95165.47
2023-03-24T09:17:30.761Z,95172.09
2023-03-24T09:18:32.703Z,95160.34
2023-03-24T09:19:34.337Z,95159.00
2023-03-24T09:20:35.983Z,95161.03
2023-03-24T09:21:38.499Z,95166.22
2023-03-24T09:22:44.020Z,95162.59
2023-03-24T09:23:45.864Z,95165.06
2023-03-24T09:24:49.196Z,95183.41
2023-03-24T09:25:52.224Z,95181.09
2023-03-24T09:26:53.882Z,95185.00
2023-03-24T09:27:56.990Z,95187.94
2023-03-24T09:28:58.591Z,95181.75
2023-03-24T09:30:00.405Z,95180.94
2023-03-24T09:31:04.970Z,95169.00
2023-03-24T09:32:06.960Z,95174.13
2023-03-24T09:33:08.663Z,95185.09
2023-03-24T09:34:10.382Z,95188.81
2023-03-24T09:35:12.384Z,95187.84
2023-03-24T09:36:14.091Z,95184.41
2023-03-24T09:37:15.780Z,95189.53
2023-03-24T09:38:17.345Z,95185.63
2023-03-24T09:39:20.171Z,95189.63
2023-03-24T09:40:24.545Z,95188.16
2023-03-24T09:41:29.683Z,95194.81
2023-03-24T09:42:39.394Z,95196.41
2023-03-24T09:43:44.026Z,95184.53
2023-03-24T09:44:49.550Z,95199.72
2023-03-24T09:45:54.409Z,95200.41
2023-03-24T09:47:28.178Z,95192.63
2023-03-24T09:48:39.404Z,95210.22
2023-03-24T09:49:42.881Z,95203.84
2023-03-24T09:51:09.365Z,95197.13
2023-03-24T09:52:13.049Z,95210.13
2023-03-24T09:53:48.165Z,95203.25
2023-03-24T09:54:58.704Z,95212.13
2023-03-24T09:56:05.149Z,95210.88
2023-03-24T09:57:16.847Z,95213.28
2023-03-24T09:58:19.772Z,95211.41
2023-03-24T09:59:28.710Z,95200.97
2023-03-24T10:00:34.555Z,95196.72
2023-03-24T10:01:36.447Z,95210.00
2023-03-24T10:02:38.369Z,95204.59
2023-03-24T10:03:40.397Z,95207.34
2023-03-24T10:04:42.175Z,95212.63
2023-03-24T10:05:52.138Z,95217.66
2023-03-24T10:07:00.392Z,95220.94
2023-03-24T10:08:15.838Z,95222.25
2023-03-24T10:09:22.877Z,95220.03
2023-03-24T10:10:36.772Z,95222.97
2023-03-24T10:11:53.146Z,95220.13
2023-03-24T10:12:59.756Z,95213.88
2023-03-24T10:14:13.006Z,95221.25
2023-03-24T10:15:37.405Z,95216.44
2023-03-24T10:17:00.621Z,95210.09
2023-03-24T10:18:18.632Z,95216.53
2023-03-24T10:19:32.409Z,95212.03
2023-03-24T10:20:39.177Z,95211.84
2023-03-24T10:21:44.053Z,95203.06
2023-03-24T10:22:45.941Z,95205.56
2023-03-24T10:24:06.422Z,95212.19
2023-03-24T10:25:42.930Z,95201.28
2023-03-24T10:26:59.155Z,95208.25
2023-03-24T10:28:09.338Z,95207.66
2023-03-24T10:29:19.866Z,95209.81
2023-03-24T10:30:24.382Z,95214.19
2023-03-24T10:31:29.734Z,95212.84
2023-03-24T10:32:34.336Z,95206.66
2023-03-24T10:33:40.308Z,95205.31
2023-03-24T10:34:44.548Z,95203.19
2023-03-24T10:36:08.520Z,95211.16
2023-03-24T10:37:11.334Z,95213.13
2023-03-24T10:38:21.029Z,95203.97
2023-03-24T10:39:28.669Z,95201.13
2023-03-24T10:40:44.359Z,95178.78
2023-03-24T10:41:46.045Z,95192.16
2023-03-24T10:42:48.914Z,95178.13
2023-03-24T10:43:52.013Z,95182.84
2023-03-24T10:44:53.828Z,95178.53
2023-03-24T10:45:56.833Z,95174.03
2023-03-24T10:47:03.567Z,95168.38
2023-03-24T10:48:05.840Z,95152.91
2023-03-24T10:49:19.837Z,95147.63
2023-03-24T10:50:25.541Z,95129.66
2023-03-24T10:51:28.958Z,95119.53
2023-03-24T10:52:40.186Z,95116.91
2023-03-24T10:53:42.743Z,95119.59
2023-03-24T10:54:58.610Z,95116.59
2023-03-24T10:56:00.526Z,95150.50
2023-03-24T10:57:04.843Z,95162.53
2023-03-24T10:58:24.440Z,95171.25
2023-03-24T10:59:29.003Z,95181.34
2023-03-24T11:00:31.953Z,95175.06
2023-03-24T11:01:35.301Z,95176.31
2023-03-24T11:02:38.194Z,95188.34
2023-03-24T11:03:40.224Z,95184.19
2023-03-24T11:04:45.274Z,95179.69
2023-03-24T11:05:47.423Z,95177.13
2023-03-24T11:07:04.188Z,95188.59
2023-03-24T11:08:27.136Z,95185.81
2023-03-24T11:09:29.692Z,95184.66
2023-03-24T11:10:31.357Z,95179.22
2023-03-24T11:11:33.031Z,95181.63
2023-03-24T11:12:59.340Z,95170.53
2023-03-24T11:14:02.564Z,95175.13
2023-03-24T11:15:22.040Z,95165.22
2023-03-24T11:16:43.985Z,95171.94
2023-03-24T11:17:47.139Z,95163.56
2023-03-24T11:18:57.260Z,95159.34
2023-03-24T11:19:58.848Z,95156.09
2023-03-24T11:21:06.098Z,95154.28
2023-03-24T11:22:10.620Z,95153.63
2023-03-24T11:23:21.081Z,95157.06
2023-03-24T11:24:22.736Z,95159.09
2023-03-24T11:25:30.040Z,95156.63
2023-03-24T11:26:36.969Z,95147.00
2023-03-24T11:27:43.084Z,95156.66
2023-03-24T11:28:53.138Z,95162.00
2023-03-24T11:29:55.540Z,95166.47
2023-03-24T11:30:57.451Z,95148.75
2023-03-24T11:32:05.402Z,95146.50
2023-03-24T11:33:07.332Z,95148.09
2023-03-24T11:34:24.280Z,95138.22
2023-03-24T11:35:39.040Z,95131.78
2023-03-24T11:36:51.238Z,95139.97
2023-03-24T11:37:52.943Z,95133.06
2023-03-24T11:39:28.136Z,95138.81
2023-03-24T11:40:29.750Z,95141.81
2023-03-24T11:41:31.370Z,95141.78
2023-03-24T11:42:32.988Z,95141.34
2023-03-24T11:43:34.634Z,95127.47
2023-03-24T11:44:39.439Z,95137.81
2023-03-24T11:45:43.333Z,95132.75
2023-03-24T11:46:47.096Z,95131.72
2023-03-24T11:47:50.202Z,95134.56
2023-03-24T11:48:55.391Z,95133.00
2023-03-24T11:50:11.996Z,95130.66
2023-03-24T11:51:22.147Z,95139.31
2023-03-24T11:52:27.787Z,95129.09
2023-03-24T11:53:41.201Z,95137.34
2023-03-24T11:54:43.559Z,95142.47
2023-03-24T11:56:07.221Z,95152.03
2023-03-24T11:57:12.689Z,95150.88
2023-03-24T11:58:49.576Z,95149.97
2023-03-24T12:00:04.341Z,95149.16
2023-03-24T12:01:21.883Z,95150.78
2023-03-24T12:02:56.758Z,95144.47
2023-03-24T12:04:20.284Z,95148.00
2023-03-24T12:05:37.797Z,95147.59
2023-03-24T12:06:51.574Z,95140.84
2023-03-24T12:08:04.061Z,95151.06
2023-03-24T12:09:08.426Z,95141.47
2023-03-24T12:10:40.690Z,95149.34
2023-03-24T12:12:08.334Z,95150.38
2023-03-24T12:13:32.387Z,95153.13
2023-03-24T12:15:14.627Z,95147.34
2023-03-24T12:16:51.862Z,95151.50
2023-03-24T12:18:27.504Z,95146.16
2023-03-24T12:19:44.589Z,95122.47
2023-03-24T12:21:12.399Z,95101.31
2023-03-24T12:22:39.024Z,95064.38
2023-03-24T12:23:45.654Z,95060.94
2023-03-24T12:24:58.409Z,95099.38
2023-03-24T12:26:26.050Z,95100.97
2023-03-24T12:27:46.063Z,95136.81
2023-03-24T12:28:51.340Z,95142.69
2023-03-24T12:30:32.042Z,95126.88
2023-03-24T12:31:58.946Z,95142.00
2023-03-24T12:33:26.657Z,95141.13
2023-03-24T12:34:47.023Z,95145.03
2023-03-24T12:35:48.816Z,95146.22
2023-03-24T12:37:28.888Z,95138.22
2023-03-24T12:38:45.673Z,95135.41
2023-03-24T12:39:54.042Z,95140.06
2023-03-24T12:41:10.985Z,95140.81
2023-03-24T12:42:20.892Z,95138.06
2023-03-24T12:43:43.506Z,95146.66
2023-03-24T12:45:15.685Z,95130.63
2023-03-24T12:46:46.570Z,95144.34
2023-03-24T12:47:58.716Z,95153.59
2023-03-24T12:49:10.337Z,95148.41
2023-03-24T12:50:21.154Z,95150.44
2023-03-24T12:51:58.174Z,95142.81
2023-03-24T12:53:14.075Z,95138.91
2023-03-24T12:54:27.990Z,95137.56
2023-03-24T12:55:35.361Z,95129.00
2023-03-24T12:56:47.535Z,95135.28
2023-03-24T12:57:52.965Z,95114.84
2023-03-24T12:58:59.726Z,95115.22
2023-03-24T13:00:08.510Z,95093.13
2023-03-24T13:01:16.408Z,95080.94
2023-03-24T13:02:32.273Z,95075.84
2023-03-24T13:03:39.399Z,95075.69
2023-03-24T13:04:42.879Z,95063.50
2023-03-24T13:05:51.370Z,95064.13
2023-03-24T13:06:57.204Z,95064.50
2023-03-24T13:08:04.094Z,95071.56
2023-03-24T13:09:43.993Z,95067.16
2023-03-24T13:10:47.327Z,95078.09
2023-03-24T13:11:57.960Z,95080.78
2023-03-24T13:13:09.017Z,95085.13
2023-03-24T13:14:15.847Z,95085.97
2023-03-24T13:15:35.662Z,95094.94
2023-03-24T13:16:38.177Z,95108.69
2023-03-24T13:18:06.330Z,95120.94
2023-03-24T13:19:19.552Z,95118.88
2023-03-24T13:20:34.223Z,95130.59
2023-03-24T13:21:37.757Z,95119.41
2023-03-24T13:22:40.224Z,95126.75
2023-03-24T13:23:58.403Z,95115.94
2023-03-24T13:25:00.388Z,95125.53
2023-03-24T13:26:08.347Z,95115.53
2023-03-24T13:27:16.798Z,95119.44
2023-03-24T13:28:21.288Z,95113.88
2023-03-24T13:29:49.114Z,95122.63
2023-03-24T13:30:51.859Z,95115.53